Aérodrome :
LOGIN :

S'inscrire | Disclaimer

   EN    FR    IT 

 










Légende :    VFR   VFR Marginal   IFR   IFR Intensif   IFR Très Intensif
Visi : 
Plafond : 
>= 8 km
>= 3000ft
5 à 8 km
1000 à 3000 ft
1500m à 5 km
500 à 1000 ft
800 à 1500m
200 à 500 ft
< 800m
< 200 ft
Symboles :   Orages  Brouillard  Fortes neiges  Fortes précipitations  Vent > 20 kt
SIGMETs :   Divers  Orages  Givrage  Turbulence  Onde Orograph.  Cendres Volcan.







- Altitude de l'aérodrome : 31 ft
- Code IATA : INV
- Voir les cartes d'approche


EGPE - Inverness

DERNIER METAR :
  • 222020Z VRB02KT 9999 FEW024 09/08 Q1014

METARs EXPIRÉS :
  • 221950Z 16004KT 070V210 9999 FEW024 11/08 Q1013
  • 221920Z 09002KT 9999 FEW024 10/08 Q1013
  • 221850Z VRB02KT 9999 FEW024 11/08 Q1013
  • 221820Z VRB03KT 9999 FEW024 SCT040 13/08 Q1013
  • 221750Z 19008KT 160V240 9999 FEW024 SCT040 13/09 Q1013

TAF TAF EGPE
Valide du 22 à 21h jusqu'au 23 à 06h UTC


222001Z 2221/2306 VRB03KT 9999 FEW025
PROB30
TEMPO 2300/2306 3000 BR
ATIS : +44 1667 464 255
Pas de NOTAMs connus pour ce terrain.



MET'MAP, la Météo Aéronautique d'un coup d'oeil ! - Copyright ORBIFLY Décembre 2007 - Disclaimer

ORBIFLY MET'MAP TEAM :

Programmation & Développement : Alexandra Zaïnal
Conception & Développement : Baudouin d'Aumeries
Co-Programmation & Développement : Marc-Olivier Méhu
Soutien technique & logistique : Manuel Goepfert

Contact : metmap@orbifly.com




SOURCES & CREDITS :

   NOAA